Terminal Aerodrome Forecast
Issued by NWS

Home | Current Version | Previous Version | Text Only | Print | Product List | Glossary On
Versions: 1 2 3 4 5 6 7 8 9 10 11 12 13 14 15 16 17 18 19 20
353
FTUS43 KILX 041735
TAFCMI
TAF
KCMI 041735Z 0418/0518 34019G28KT P6SM VCSH BKN035
     FM050100 34011KT P6SM SKC
     FM050900 34012KT P6SM OVC010
     FM051400 35014KT P6SM OVC025=

USA.gov is the U.S. government's official web portal to all federal, state and local government web resources and services.